createdAt,value
2019-05-19T00:01:39.344Z,21.45
2019-05-19T00:04:21.844Z,23.32
2019-05-19T00:06:57.560Z,21.00
2019-05-19T00:09:39.752Z,21.45
2019-05-19T00:12:29.151Z,20.20
2019-05-19T00:15:12.650Z,21.12
2019-05-19T00:17:48.689Z,21.33
2019-05-19T00:20:31.252Z,20.45
2019-05-19T00:23:14.377Z,21.42
2019-05-19T00:25:56.923Z,20.62
2019-05-19T00:28:32.469Z,20.05
2019-05-19T00:31:15.888Z,20.65
2019-05-19T00:33:52.339Z,20.40
2019-05-19T00:36:35.953Z,20.72
2019-05-19T00:39:12.917Z,21.37
2019-05-19T00:41:55.838Z,21.17
2019-05-19T00:44:32.365Z,21.30
2019-05-19T00:47:14.864Z,21.57
2019-05-19T00:49:51.349Z,21.90
2019-05-19T00:52:33.657Z,21.30
2019-05-19T00:55:10.084Z,19.67
2019-05-19T00:57:52.763Z,22.00
2019-05-19T01:00:29.003Z,24.55
2019-05-19T01:03:11.241Z,24.82
2019-05-19T01:05:47.371Z,23.73
2019-05-19T01:08:30.481Z,24.07
2019-05-19T01:11:06.212Z,24.07
2019-05-19T01:13:48.351Z,21.55
2019-05-19T01:16:24.571Z,22.42
2019-05-19T01:19:06.200Z,23.52
2019-05-19T01:21:43.366Z,22.17
2019-05-19T01:24:25.855Z,22.20
2019-05-19T01:27:01.755Z,20.70
2019-05-19T01:29:38.135Z,20.75
2019-05-19T01:32:14.711Z,20.95
2019-05-19T01:34:57.268Z,20.05
2019-05-19T01:37:46.482Z,22.27
2019-05-19T01:40:29.149Z,22.00
2019-05-19T01:43:04.592Z,23.70
2019-05-19T01:45:47.587Z,25.10
2019-05-19T01:48:24.075Z,23.57
2019-05-19T01:51:07.356Z,25.55
2019-05-19T01:53:49.976Z,24.35
2019-05-19T01:56:26.197Z,23.92
2019-05-19T01:59:09.288Z,26.00
2019-05-19T02:01:51.850Z,24.37
2019-05-19T02:04:34.798Z,26.30
2019-05-19T02:07:16.896Z,26.20
2019-05-19T02:10:00.074Z,25.17
2019-05-19T02:12:43.164Z,28.10
2019-05-19T02:15:27.037Z,28.10
2019-05-19T02:18:02.855Z,24.82
2019-05-19T02:20:45.404Z,25.50
2019-05-19T02:23:21.903Z,22.17
2019-05-19T02:26:04.291Z,24.30
2019-05-19T02:28:53.400Z,23.98
2019-05-19T02:31:35.941Z,22.95
2019-05-19T02:34:12.213Z,22.52
2019-05-19T02:36:55.378Z,24.80
2019-05-19T02:39:31.354Z,24.52
2019-05-19T02:42:15.075Z,25.00
2019-05-19T02:47:36.735Z,21.68
2019-05-19T02:50:21.605Z,23.98
2019-05-19T02:53:07.287Z,27.50
2019-05-19T02:55:51.169Z,25.85
2019-05-19T02:58:34.831Z,23.52
2019-05-19T03:01:17.305Z,23.98
2019-05-19T03:03:59.727Z,23.47
2019-05-19T03:06:35.418Z,25.08
2019-05-19T03:09:11.168Z,23.87
2019-05-19T03:11:53.142Z,23.25
2019-05-19T03:14:42.393Z,24.12
2019-05-19T03:17:24.250Z,23.65
2019-05-19T03:20:00.586Z,23.67
2019-05-19T03:22:43.728Z,22.45
2019-05-19T03:25:19.573Z,23.18
2019-05-19T03:28:02.728Z,24.40
2019-05-19T03:30:43.103Z,21.73
2019-05-19T03:33:26.680Z,23.18
2019-05-19T03:36:02.684Z,22.45
2019-05-19T03:38:39.216Z,23.35
2019-05-19T03:41:15.212Z,22.62
2019-05-19T03:43:57.549Z,21.48
2019-05-19T03:46:46.551Z,21.82
2019-05-19T03:49:29.129Z,22.20
2019-05-19T03:52:05.734Z,22.02
2019-05-19T03:54:47.532Z,22.50
2019-05-19T03:57:30.786Z,22.73
2019-05-19T04:00:14.908Z,29.23
2019-05-19T04:02:51.286Z,22.02
2019-05-19T04:05:34.199Z,23.67
2019-05-19T04:08:17.348Z,23.30
2019-05-19T04:10:59.990Z,22.80
2019-05-19T04:13:35.588Z,23.77
2019-05-19T04:16:17.747Z,24.15
2019-05-19T04:18:53.842Z,24.35
2019-05-19T04:21:48.297Z,24.15
2019-05-19T04:24:14.331Z,26.25
2019-05-19T04:26:57.629Z,25.12
2019-05-19T04:29:40.176Z,23.30
2019-05-19T04:32:16.008Z,24.80
2019-05-19T04:34:59.155Z,26.97
2019-05-19T04:37:41.359Z,25.08
2019-05-19T04:40:18.153Z,24.87
2019-05-19T04:43:01.376Z,25.72
2019-05-19T04:45:37.011Z,25.70
2019-05-19T04:48:20.038Z,27.40
2019-05-19T04:50:56.081Z,25.32
2019-05-19T04:53:38.260Z,24.80
2019-05-19T04:56:21.362Z,23.70
2019-05-19T04:59:10.874Z,24.15
2019-05-19T05:01:53.292Z,24.43
2019-05-19T05:04:35.832Z,22.77
2019-05-19T05:10:26.538Z,24.23
2019-05-19T05:13:09.680Z,23.20
2019-05-19T05:15:45.781Z,24.50
2019-05-19T05:18:21.690Z,23.22
2019-05-19T05:21:05.776Z,21.10
2019-05-19T05:23:41.634Z,21.73
2019-05-19T05:26:24.702Z,21.90
2019-05-19T05:29:01.318Z,22.95
2019-05-19T05:31:43.857Z,22.27
2019-05-19T05:34:19.911Z,23.20
2019-05-19T05:37:02.467Z,24.35
2019-05-19T05:39:51.562Z,24.60
2019-05-19T05:42:27.370Z,23.07
2019-05-19T05:45:10.293Z,25.35
2019-05-19T05:47:46.306Z,23.98
2019-05-19T05:50:29.400Z,23.32
2019-05-19T05:53:11.958Z,24.72
2019-05-19T05:55:48.080Z,24.05
2019-05-19T05:58:24.137Z,23.45
2019-05-19T06:01:06.589Z,24.40
2019-05-19T06:03:49.978Z,23.52
2019-05-19T06:06:32.719Z,22.87
2019-05-19T06:09:15.799Z,22.13
2019-05-19T06:11:59.002Z,22.67
2019-05-19T06:14:41.010Z,21.90
2019-05-19T06:17:23.779Z,22.80
2019-05-19T06:20:06.549Z,23.57
2019-05-19T06:22:55.648Z,23.18
2019-05-19T06:25:27.402Z,23.47
2019-05-19T06:28:03.472Z,23.57
2019-05-19T06:30:45.412Z,22.95
2019-05-19T06:33:21.498Z,22.95
2019-05-19T06:36:03.765Z,22.70
2019-05-19T06:38:39.616Z,22.90
2019-05-19T06:41:21.538Z,22.02
2019-05-19T06:43:58.140Z,22.65
2019-05-19T06:46:41.600Z,22.05
2019-05-19T06:49:17.370Z,20.97
2019-05-19T06:52:00.162Z,21.52
2019-05-19T06:54:36.622Z,23.90
2019-05-19T06:57:18.508Z,21.80
2019-05-19T06:59:54.656Z,23.32
2019-05-19T07:02:37.411Z,22.02
2019-05-19T07:05:14.812Z,22.50
2019-05-19T07:07:57.553Z,24.35
2019-05-19T07:10:34.054Z,22.27
2019-05-19T07:13:16.840Z,20.37
2019-05-19T07:15:52.808Z,28.30
2019-05-19T07:18:35.907Z,19.50
2019-05-19T07:21:12.489Z,22.60
2019-05-19T07:23:55.082Z,22.93
2019-05-19T07:26:37.538Z,22.60
2019-05-19T07:29:13.607Z,20.40
2019-05-19T07:31:56.311Z,20.48
2019-05-19T07:34:39.168Z,20.07
2019-05-19T07:37:15.130Z,21.00
2019-05-19T07:39:57.110Z,21.02
2019-05-19T07:42:33.491Z,20.82
2019-05-19T07:45:19.247Z,21.27
2019-05-19T07:48:01.482Z,21.85
2019-05-19T07:50:44.050Z,20.82
2019-05-19T07:53:20.491Z,22.13
2019-05-19T07:56:03.408Z,23.35
2019-05-19T07:58:39.073Z,22.17
2019-05-19T08:01:21.856Z,23.12
2019-05-19T08:03:58.164Z,21.80
2019-05-19T08:06:41.539Z,21.35
2019-05-19T08:09:17.728Z,24.07
2019-05-19T08:12:00.108Z,23.62
2019-05-19T08:14:43.086Z,21.95
2019-05-19T08:17:26.100Z,22.13
2019-05-19T08:20:02.173Z,21.93
2019-05-19T08:22:45.162Z,21.48
2019-05-19T08:25:21.803Z,21.20
2019-05-19T08:28:08.779Z,21.23
2019-05-19T08:30:42.555Z,19.67
2019-05-19T08:33:25.234Z,20.20
2019-05-19T08:36:01.712Z,20.08
2019-05-19T08:38:44.654Z,20.02
2019-05-19T08:41:28.109Z,22.13
2019-05-19T08:44:11.848Z,20.70
2019-05-19T08:46:48.568Z,20.55
2019-05-19T08:49:30.904Z,20.08
2019-05-19T08:52:07.422Z,19.55
2019-05-19T08:54:50.518Z,19.77
2019-05-19T08:57:25.989Z,20.15
2019-05-19T09:00:09.054Z,18.30
2019-05-19T09:02:45.142Z,20.12
2019-05-19T09:05:27.749Z,20.20
2019-05-19T09:08:03.757Z,20.23
2019-05-19T09:10:45.770Z,20.25
2019-05-19T09:13:28.918Z,20.27
2019-05-19T09:16:12.360Z,22.10
2019-05-19T09:18:55.413Z,22.27
2019-05-19T09:21:31.658Z,21.75
2019-05-19T09:24:29.286Z,22.27
2019-05-19T09:26:52.366Z,20.68
2019-05-19T09:29:35.624Z,20.80
2019-05-19T09:32:18.074Z,21.70
2019-05-19T09:35:00.320Z,22.17
2019-05-19T09:37:36.030Z,23.73
2019-05-19T09:40:22.030Z,23.92
2019-05-19T09:43:10.850Z,21.52
2019-05-19T09:45:52.735Z,20.48
2019-05-19T09:48:28.904Z,20.15
2019-05-19T09:51:11.960Z,21.33
2019-05-19T09:53:47.513Z,20.80
2019-05-19T09:56:30.179Z,19.15
2019-05-19T09:59:06.316Z,19.50
2019-05-19T10:01:49.047Z,18.73
2019-05-19T10:04:25.241Z,19.57
2019-05-19T10:07:08.028Z,16.90
2019-05-19T10:10:11.713Z,17.87
2019-05-19T10:13:00.685Z,17.63
2019-05-19T10:15:37.248Z,15.65
2019-05-19T10:18:19.971Z,15.45
2019-05-19T10:21:02.579Z,16.10
2019-05-19T10:23:38.959Z,16.00
2019-05-19T10:26:21.080Z,13.88
2019-05-19T10:29:04.172Z,13.10
2019-05-19T10:31:54.456Z,13.60
2019-05-19T10:34:30.392Z,13.95
2019-05-19T10:37:19.393Z,11.80
2019-05-19T10:40:01.332Z,13.28
2019-05-19T10:42:43.867Z,12.93
2019-05-19T10:45:33.638Z,12.65
2019-05-19T10:48:16.074Z,12.05
2019-05-19T10:50:51.744Z,11.38
2019-05-19T10:53:33.765Z,12.00
2019-05-19T10:56:10.123Z,12.80
2019-05-19T10:58:53.517Z,11.15
2019-05-19T11:01:29.846Z,9.80
2019-05-19T11:04:11.931Z,8.80
2019-05-19T11:06:48.475Z,9.50
2019-05-19T11:09:30.385Z,10.20
2019-05-19T11:12:13.094Z,10.28
2019-05-19T11:15:01.931Z,11.20
2019-05-19T11:17:37.422Z,10.35
2019-05-19T11:20:20.155Z,9.90
2019-05-19T11:23:02.754Z,9.80
2019-05-19T11:25:51.484Z,9.35
2019-05-19T11:28:29.737Z,7.90
2019-05-19T11:31:06.067Z,7.30
2019-05-19T11:33:49.193Z,7.42
2019-05-19T11:36:31.744Z,7.50
2019-05-19T11:39:15.942Z,7.80
2019-05-19T11:41:52.495Z,7.30
2019-05-19T11:44:28.790Z,9.08
2019-05-19T11:47:11.735Z,8.83
2019-05-19T11:49:47.569Z,9.40
2019-05-19T11:52:30.773Z,9.30
2019-05-19T11:55:13.922Z,10.30
2019-05-19T11:57:50.068Z,10.82
2019-05-19T12:00:33.001Z,10.23
2019-05-19T12:03:15.583Z,10.32
2019-05-19T12:05:51.177Z,10.28
2019-05-19T12:08:34.087Z,10.90
2019-05-19T12:11:23.592Z,12.00
2019-05-19T12:13:59.201Z,10.80
2019-05-19T12:16:41.431Z,12.07
2019-05-19T12:19:16.881Z,11.38
2019-05-19T12:21:59.910Z,11.28
2019-05-19T12:24:35.682Z,10.80
2019-05-19T12:27:12.224Z,10.03
2019-05-19T12:29:48.554Z,11.08
2019-05-19T12:32:31.854Z,11.70
2019-05-19T12:35:08.402Z,11.22
2019-05-19T12:37:50.902Z,11.60
2019-05-19T12:40:27.130Z,10.88
2019-05-19T12:43:09.222Z,11.20
2019-05-19T12:45:45.348Z,11.33
2019-05-19T12:48:30.631Z,9.90
2019-05-19T12:51:06.866Z,11.40
2019-05-19T12:53:49.073Z,11.22
2019-05-19T12:56:38.756Z,10.72
2019-05-19T12:59:08.973Z,10.18
2019-05-19T13:01:45.439Z,9.55
2019-05-19T13:04:27.340Z,10.08
2019-05-19T13:07:02.877Z,9.85
2019-05-19T13:09:38.928Z,9.43
2019-05-19T13:12:21.188Z,9.70
2019-05-19T13:14:56.880Z,8.78
2019-05-19T13:17:32.607Z,10.05
2019-05-19T13:20:15.332Z,11.53
2019-05-19T13:22:58.179Z,11.77
2019-05-19T13:25:34.312Z,11.78
2019-05-19T13:28:16.966Z,11.78
2019-05-19T13:30:52.971Z,11.77
2019-05-19T13:33:35.736Z,12.13
2019-05-19T13:36:12.113Z,12.13
2019-05-19T13:38:54.934Z,11.85
2019-05-19T13:41:31.998Z,12.37
2019-05-19T13:44:14.875Z,12.15
2019-05-19T13:46:57.745Z,11.28
2019-05-19T13:49:47.107Z,11.88
2019-05-19T13:52:22.855Z,11.78
2019-05-19T13:55:04.975Z,11.57
2019-05-19T13:57:40.734Z,11.93
2019-05-19T14:00:23.812Z,12.98
2019-05-19T14:03:06.154Z,11.83
2019-05-19T14:05:41.960Z,12.88
2019-05-19T14:08:24.803Z,11.93
2019-05-19T14:11:01.157Z,12.25
2019-05-19T14:13:44.051Z,12.15
2019-05-19T14:16:26.449Z,11.20
2019-05-19T14:19:08.855Z,10.55
2019-05-19T14:21:45.374Z,10.80
2019-05-19T14:24:27.912Z,10.55
2019-05-19T14:27:03.370Z,10.82
2019-05-19T14:29:45.235Z,10.72
2019-05-19T14:32:28.067Z,11.05
2019-05-19T14:35:04.330Z,10.67
2019-05-19T14:37:47.327Z,10.78
2019-05-19T14:40:36.697Z,11.70
2019-05-19T14:43:38.801Z,9.63
2019-05-19T14:46:15.254Z,10.03
2019-05-19T14:48:57.213Z,9.95
2019-05-19T14:51:39.722Z,10.28
2019-05-19T14:54:16.096Z,10.25
2019-05-19T14:56:58.996Z,11.25
2019-05-19T14:59:42.785Z,10.68
2019-05-19T15:02:25.121Z,10.35
2019-05-19T15:05:08.102Z,10.15
2019-05-19T15:07:44.185Z,10.00
2019-05-19T15:10:26.690Z,9.70
2019-05-19T15:13:02.727Z,8.88
2019-05-19T15:15:39.052Z,9.28
2019-05-19T15:18:21.656Z,10.23
2019-05-19T15:20:57.627Z,10.08
2019-05-19T15:23:40.298Z,9.85
2019-05-19T15:26:27.187Z,9.93
2019-05-19T15:29:09.656Z,9.98
2019-05-19T15:31:52.483Z,10.32
2019-05-19T15:34:28.280Z,10.28
2019-05-19T15:37:10.789Z,10.25
2019-05-19T15:39:52.890Z,10.53
2019-05-19T15:42:29.060Z,9.48
2019-05-19T15:45:12.586Z,10.85
2019-05-19T15:50:26.159Z,10.68
2019-05-19T15:53:08.097Z,10.15
2019-05-19T15:55:44.319Z,10.38
2019-05-19T15:58:27.261Z,10.63
2019-05-19T16:01:24.346Z,10.82
2019-05-19T16:03:59.885Z,9.48
2019-05-19T16:06:42.328Z,9.45
2019-05-19T16:09:17.982Z,9.15
2019-05-19T16:12:01.173Z,9.55
2019-05-19T16:14:36.967Z,9.50
2019-05-19T16:17:19.379Z,9.50
2019-05-19T16:20:10.819Z,9.93
2019-05-19T16:22:53.499Z,9.80
2019-05-19T16:25:29.693Z,8.03
2019-05-19T16:28:06.095Z,8.48
2019-05-19T16:30:48.409Z,8.93
2019-05-19T16:33:30.987Z,9.58
2019-05-19T16:36:08.026Z,9.30
2019-05-19T16:38:50.667Z,9.00
2019-05-19T16:41:26.418Z,10.50
2019-05-19T16:44:09.747Z,9.83
2019-05-19T16:46:45.444Z,10.40
2019-05-19T16:49:28.308Z,10.70
2019-05-19T16:52:17.607Z,10.55
2019-05-19T16:55:11.327Z,10.15
2019-05-19T16:57:53.866Z,10.50
2019-05-19T17:00:43.472Z,10.45
2019-05-19T17:03:19.407Z,10.65
2019-05-19T17:06:02.221Z,11.22
2019-05-19T17:08:37.950Z,10.58
2019-05-19T17:11:21.326Z,10.48
2019-05-19T17:13:57.696Z,10.58
2019-05-19T17:16:40.680Z,10.68
2019-05-19T17:19:16.149Z,10.93
2019-05-19T17:21:58.185Z,10.48
2019-05-19T17:24:48.268Z,11.00
2019-05-19T17:27:31.727Z,10.75
2019-05-19T17:30:07.973Z,10.85
2019-05-19T17:32:51.464Z,11.12
2019-05-19T17:35:27.784Z,11.60
2019-05-19T17:38:10.616Z,11.40
2019-05-19T17:40:47.880Z,11.63
2019-05-19T17:43:29.768Z,11.65
2019-05-19T17:46:08.021Z,11.88
2019-05-19T17:48:50.919Z,12.10
2019-05-19T17:51:26.813Z,12.80
2019-05-19T17:54:08.989Z,11.78
2019-05-19T17:56:46.722Z,12.10
2019-05-19T17:59:31.966Z,11.90
2019-05-19T18:02:14.253Z,12.73
2019-05-19T18:04:56.959Z,12.28
2019-05-19T18:07:39.973Z,12.03
2019-05-19T18:10:23.105Z,11.90
2019-05-19T18:12:59.048Z,12.20
2019-05-19T18:15:43.049Z,13.15
2019-05-19T18:18:18.888Z,14.83
2019-05-19T18:21:01.885Z,16.15
2019-05-19T18:23:37.912Z,14.23
2019-05-19T18:26:22.156Z,15.55
2019-05-19T18:28:58.559Z,16.87
2019-05-19T18:31:41.197Z,15.70
2019-05-19T18:34:24.520Z,16.35
2019-05-19T18:37:00.324Z,19.25
2019-05-19T18:39:43.062Z,21.00
2019-05-19T18:42:32.172Z,23.70
2019-05-19T18:45:15.041Z,27.98
2019-05-19T18:47:50.706Z,34.35
2019-05-19T18:50:33.118Z,42.03
2019-05-19T18:53:09.571Z,40.55
2019-05-19T18:55:51.973Z,34.73
2019-05-19T18:58:35.147Z,23.05
2019-05-19T19:01:24.398Z,21.87
2019-05-19T19:04:07.257Z,22.25
2019-05-19T19:06:43.156Z,22.90
2019-05-19T19:09:18.833Z,21.50
2019-05-19T19:12:01.395Z,18.30
2019-05-19T19:14:36.982Z,17.37
2019-05-19T19:17:19.757Z,17.27
2019-05-19T19:19:55.691Z,17.43
2019-05-19T19:22:38.665Z,16.95
2019-05-19T19:25:21.228Z,18.20
2019-05-19T19:27:57.337Z,18.65
2019-05-19T19:30:33.293Z,18.37
2019-05-19T19:33:15.769Z,17.07
2019-05-19T19:35:51.599Z,16.37
2019-05-19T19:38:34.712Z,17.25
2019-05-19T19:41:17.487Z,17.57
2019-05-19T19:44:00.465Z,23.93
2019-05-19T19:46:53.390Z,21.48
2019-05-19T19:49:33.550Z,22.13
2019-05-19T19:52:09.933Z,18.05
2019-05-19T19:54:45.726Z,18.73
2019-05-19T19:57:22.122Z,23.83
2019-05-19T20:00:17.304Z,25.10
2019-05-19T20:02:49.013Z,20.88
2019-05-19T20:05:25.113Z,18.73
2019-05-19T20:08:07.594Z,17.82
2019-05-19T20:10:44.540Z,18.30
2019-05-19T20:13:27.134Z,21.65
2019-05-19T20:16:10.180Z,19.00
2019-05-19T20:18:59.664Z,19.12
2019-05-19T20:21:35.302Z,18.77
2019-05-19T20:24:18.426Z,18.85
2019-05-19T20:26:54.199Z,19.05
2019-05-19T20:29:37.437Z,18.35
2019-05-19T20:32:26.348Z,17.32
2019-05-19T20:35:08.556Z,17.32
2019-05-19T20:37:44.947Z,17.60
2019-05-19T20:40:27.564Z,18.07
2019-05-19T20:43:10.644Z,20.15
2019-05-19T20:45:52.995Z,18.95
2019-05-19T20:48:28.763Z,18.75
2019-05-19T20:51:12.168Z,19.07
2019-05-19T20:53:54.958Z,19.12
2019-05-19T20:56:36.671Z,18.13
2019-05-19T20:59:12.707Z,19.57
2019-05-19T21:01:55.551Z,19.00
2019-05-19T21:04:31.820Z,17.87
2019-05-19T21:07:14.421Z,18.17
2019-05-19T21:09:49.933Z,19.55
2019-05-19T21:12:33.179Z,19.05
2019-05-19T21:15:09.625Z,20.20
2019-05-19T21:17:52.335Z,19.57
2019-05-19T21:20:28.886Z,20.33
2019-05-19T21:23:12.253Z,17.77
2019-05-19T21:25:48.676Z,16.85
2019-05-19T21:28:24.930Z,18.52
2019-05-19T21:31:05.806Z,19.32
2019-05-19T21:33:44.957Z,18.35
2019-05-19T21:36:34.059Z,18.23
2019-05-19T21:39:11.472Z,18.73
2019-05-19T21:41:47.725Z,19.00
2019-05-19T21:44:29.926Z,17.07
2019-05-19T21:47:05.962Z,17.67
2019-05-19T21:49:48.436Z,17.55
2019-05-19T21:52:37.440Z,15.90
2019-05-19T21:55:20.295Z,17.23
2019-05-19T21:57:56.319Z,18.42
2019-05-19T22:00:39.687Z,19.48
2019-05-19T22:03:21.856Z,21.10
2019-05-19T22:05:57.465Z,21.70
2019-05-19T22:08:33.782Z,20.43
2019-05-19T22:11:16.386Z,21.45
2019-05-19T22:13:59.502Z,21.85
2019-05-19T22:16:42.161Z,25.75
2019-05-19T22:19:24.570Z,19.05
2019-05-19T22:22:01.161Z,18.07
2019-05-19T22:24:36.913Z,19.90
2019-05-19T22:27:19.128Z,19.07
2019-05-19T22:30:01.476Z,17.75
2019-05-19T22:32:37.477Z,17.23
2019-05-19T22:35:21.437Z,17.57
2019-05-19T22:37:57.425Z,16.50
2019-05-19T22:40:40.917Z,17.17
2019-05-19T22:43:16.522Z,17.00
2019-05-19T22:45:59.100Z,17.40
2019-05-19T22:48:42.149Z,17.42
2019-05-19T22:51:17.719Z,17.15
2019-05-19T22:54:00.658Z,17.57
2019-05-19T22:56:43.371Z,18.27
2019-05-19T22:59:20.465Z,16.70
2019-05-19T23:02:09.439Z,17.37
2019-05-19T23:04:44.923Z,16.77
2019-05-19T23:07:27.845Z,17.10
2019-05-19T23:10:05.769Z,17.67
2019-05-19T23:12:48.367Z,18.00
2019-05-19T23:15:24.251Z,17.70
2019-05-19T23:18:07.013Z,17.80
2019-05-19T23:20:42.862Z,19.00
2019-05-19T23:23:25.405Z,17.75
2019-05-19T23:26:01.360Z,17.85
2019-05-19T23:28:44.310Z,18.95
2019-05-19T23:31:19.957Z,18.37
2019-05-19T23:34:03.088Z,18.27
2019-05-19T23:36:38.839Z,18.55
2019-05-19T23:39:21.759Z,18.20
2019-05-19T23:41:57.582Z,17.87
2019-05-19T23:44:40.762Z,18.12
2019-05-19T23:47:23.004Z,18.98
2019-05-19T23:49:59.181Z,18.32
2019-05-19T23:52:41.433Z,19.55
2019-05-19T23:55:24.391Z,18.25
2019-05-19T23:58:00.184Z,18.55
